BOSGENERAL EDWARD LAWRENCE LOGAN INTL
METARs for airports near BOS, sorted by distance:
N 0 nm 19' KBOS 221754Z VRB05G15KT 10SM FEW060 FEW250 12/M09 A3002
SW 12 nm 49' KOWD 221753Z 34006G16KT 10SM CLR 13/M09 A3002
N 13 nm 107' KBVY 221753Z 30008G24KT 10SM CLR 11/M11 A3001
NW 14 nm 132' KBED 221751Z 32005G15KT 10SM CLR 12/M09 A3001
SE 21 nm 8' KGHG 221755Z 02009KT 350V050 10SM CLR 11/M08 A3002
N 21 nm 147' KLWM 221754Z 31010G17KT 280V340 10SM CLR 11/M09 A3003
S 29 nm 41' KTAN 221752Z VRB06KT 10SM CLR 14/M10 A3002
SE 29 nm 148' KPYM 221752Z 33006G23KT 10SM CLR 13/M10 A3001
NW 33 nm 200' KASH 221756Z 33008G20KT 300V010 10SM CLR 12/M12 A3002
SW 34 nm 440' KSFZ 221756Z 31008G16KT 10SM CLR 12/M09 A3002
W 35 nm 344' KFIT 221752Z 29013G24KT 10SM CLR 12/M12 A3003
W 39 nm 1009' KORH 221754Z 25011G18KT 10SM CLR 11/M12 A3001
SE 39 nm 7' KPVC 221756Z 36007KT 10SM CLR 08/M03 A3005
NW 39 nm 266' KMHT 221753Z 31011G27KT 10SM CLR 12/M12 A3001
S 41 nm 79' KEWB 221753Z VRB04KT 10SM CLR 14/M08 A3002
SW 42 nm 54' KPVD 221751Z 32010G21KT 10SM FEW250 13/M08 A3003
N 43 nm 100' KPSM 221755Z 29012G17KT 10SM FEW250 12/M12 A3000
SE 47 nm 130' KFMH 221745Z 05015KT 10SM CLR 11/M06 A3002
S 49 nm 18' KOQU 212150Z 30014KT 10SM FEW065 OVC180 11/M06 A2987
S 51 nm 171' KUUU 221753Z 35005KT 10SM CLR 12/M07 A3003
NW 51 nm 1039' KAFN 221752Z 30007G20KT 270V360 10SM CLR 10/M14 A3002
SE 52 nm 54' KHYA 221756Z 02011G22KT 10SM CLR 09/M05 A3002
NW 54 nm 341' KCON 221751Z 29009G17KT 10SM CLR 11/M12 A3002
N 55 nm 322' KDAW 221751Z 32016G28KT 10SM CLR 12/M10 A3000
W 58 nm 555' KORE 221752Z 34013G18KT 10SM CLR 12/M13 A3003
S 60 nm 66' KMVY 221753Z 34008KT 10SM CLR 14/M05 A3004
SE 60 nm 63' KCQX 221752Z 36009G21KT 320V040 10SM CLR 11/M09 A3004
N 63 nm 244' KSFM 221756Z 27013G21KT 10SM CLR 10/M12 A3000
SW 64 nm 246' KIJD 221752Z 33009G19KT 10SM CLR 13/M09 A3004
NW 64 nm 488' KEEN 221756Z 35012G16KT 10SM CLR 11/M11 A3003
W 68 nm 241' KCEF 221755Z 28008G19KT 10SM FEW250 13/M14 A3001
SW 70 nm 81' KWST 221753Z 10SM CLR 14/M04 A3003
N 74 nm 545' KLCI 221756Z 34010G17KT 10SM CLR 09/M13 A3002
S 76 nm 107' KBID 221756Z 18013KT 10SM CLR 10/00 A3006
W 76 nm 270' KBAF 221753Z 35005KT 10SM CLR 13/M11 A3003
SW 77 nm 9' KGON 221756Z 35009G17KT 10SM CLR 14/M06 A3003
W 78 nm 173' KBDL 221751Z 34008G17KT 10SM FEW250 15/M10 A3003
SE 78 nm 46' KACK 221753Z 35011G17KT 10SM CLR 11/M04 A3005
SW 82 nm 18' KHFD 221753Z 29007KT 260V340 10SM CLR 13/M08 A3003
N 82 nm 75' KPWM 221751Z 31013KT 10SM CLR 11/M09 A2999
SW 87 nm 6' KMTP 221754Z 28007KT 13/M02 A3006
NW 88 nm 577' KVSF 221754Z 31013G21KT 10SM CLR 09/M12 A3006
SW 89 nm 416' KSNC 221755Z 31008G13KT 10SM CLR 14/M08 A3004
NW 94 nm 603' KLEB 221753Z 31011G22KT 10SM CLR 10/M12 A3004
SW 96 nm 103' KMMK 221753Z 30012G18KT 10SM CLR 13/M09 A3004
N 97 nm 454' KIZG 221754Z 27007KT 220V330 10SM CLR 11/M13 A3000
W 97 nm 653' KAQW 221752Z VRB06G18KT 10SM CLR 11/M10 A3006
TAFs for airports near BOS, sorted by distance:
N 0 nm 19' KBOS TAF KBOS 221720Z 2218/2324 33011G20KT P6SM FEW250
  FM222100 01007KT P6SM SKC
  FM222200 06006KT P6SM SKC
  FM230000 12005KT P6SM SKC
  FM230600 19005KT P6SM FEW250
  FM231700 17012KT P6SM FEW250
NW 14 nm 132' KBED TAF
  AMD KBED 221756Z 2218/2318 32008G16KT P6SM SKC
  FM222200 32006KT P6SM SKC
  FM230000 02004KT P6SM SKC
  FM230500 00000KT P6SM SKC
  FM231200 20003KT P6SM SKC
  FM231400 19007KT P6SM SKC
W 39 nm 1009' KORH TAF KORH 221720Z 2218/2318 33008G16KT P6SM SKC
  FM222200 31007KT P6SM SKC
  FM230200 34003KT P6SM SKC
  FM230600 24007KT P6SM SKC
  FM231600 20008KT P6SM SKC
NW 39 nm 266' KMHT KMHT 221730Z 2218/2318 32011G22KT P6SM SKC
  FM230000 VRB05KT P6SM SKC
  FM231500 19008G15KT P6SM SKC
SW 42 nm 54' KPVD TAF KPVD 221720Z 2218/2318 31008G16KT P6SM FEW250
  FM222200 31005KT P6SM SKC
  FM230000 18004KT P6SM SKC
  FM230600 00000KT P6SM SKC
  FM231100 20003KT P6SM FEW250
  FM231400 18008KT P6SM FEW250
N 43 nm 100' KPSM KPSM 221730Z 2218/2318 30012G20KT P6SM SKC
  FM230000 VRB05KT P6SM SKC
  FM231400 17010G18KT P6SM SKC
SE 47 nm 130' KFMH TAF KFMH 221720Z 2218/2318 05013G20KT P6SM SKC
  FM222000 03006KT P6SM SKC
  FM222200 15005KT P6SM SKC
  FM230500 20004KT P6SM SKC
  FM231400 19007KT P6SM SKC
SE 52 nm 54' KHYA TAF KHYA 221720Z 2218/2318 01015G25KT P6SM SKC
  FM222000 02008KT P6SM SKC
  FM222200 10003KT P6SM SKC
  FM230100 17006KT P6SM SKC
  FM230700 00000KT P6SM SKC
  FM231500 18007KT P6SM SKC
NW 54 nm 341' KCON KCON 221730Z 2218/2318 31014G22KT P6SM SKC
  FM230000 VRB05KT P6SM SKC
  FM231500 19008G15KT P6SM SKC
W 68 nm 241' KCEF TAF KCEF 220014Z 2200/2306 30009KT 9999 SCT060 BKN250 510103 QNH2988INS WND VRB06KT AFT 2205
  BECMG 2211/2212 31012KT 9999 SCT040 SCT250 QNH3001INS
  TEMPO 2215/2223 32012G18KT
  BECMG 2223/2224 30009KT 9999 FEW250 QNH3010INS WND VRB06KT AFT 2302 TX14/2221Z TN01/2210Z LAST NO
  AMDS AFT 2201 NEXT 2212
W 76 nm 270' KBAF TAF KBAF 221720Z 2218/2318 32010G18KT P6SM SKC
  FM222200 32007KT P6SM SKC
  FM230300 31003KT P6SM SKC
  FM230500 00000KT P6SM SKC
  FM231300 18005KT P6SM SKC
  FM231600 19008KT P6SM FEW250
SW 77 nm 9' KGON KGON 221737Z 2218/2318 30010G18KT P6SM FEW250
  FM222000 26010KT P6SM FEW250
  FM230000 20005KT P6SM SKC
  FM230100 VRB02KT P6SM SKC
  FM231300 18009KT P6SM FEW250
W 78 nm 173' KBDL TAF KBDL 221720Z 2218/2324 32010G19KT P6SM FEW070 FEW250
  FM222300 32005KT P6SM SKC
  FM230400 00000KT P6SM SKC
  FM231100 18003KT P6SM SKC
  FM231400 19007KT P6SM FEW250
  FM231800 19010G18KT P6SM FEW200
SE 78 nm 46' KACK TAF KACK 221720Z 2218/2318 36011G20KT P6SM SKC
  FM222000 02007KT P6SM FEW250
  FM222100 07005KT P6SM FEW250
  FM230000 12005KT P6SM SKC
  FM230900 17005KT P6SM FEW250
  FM231400 14007KT P6SM FEW250
N 82 nm 75' KPWM KPWM 221730Z 2218/2318 32011G19KT P6SM SKC
  FM230000 VRB05KT P6SM SKC
  FM231400 18010G18KT P6SM SKC
NW 94 nm 603' KLEB KLEB 221730Z 2218/2318 32009G18KT P6SM SKC
  FM230000 VRB04KT P6SM SKC
  FM231500 19008G15KT P6SM SKC

Shortcut to this page: http://wxbay.com.

Data may contain errors.